Terminal Aerodrome Forecast
Issued by NWS

Home | Current Version | Previous Version | Text Only | Print | Product List | Glossary Off
Versions: 1 2 3 4 5 6 7 8 9 10 11 12 13 14 15 16 17

000
FTUS43 KABR 311135
TAFATY
TAF
KATY 311135Z 3112/0112 VRB06KT P6SM SKC
     FM311600 30010KT P6SM SKC
     FM010200 VRB06KT P6SM SKC=

USA.gov is the U.S. government's official web portal to all federal, state and local government web resources and services.